Time;durP1;ratioP1;P1;durP2;ratioP2;P2;SDS_P1;SDS_P2;PMS_P1;PMS_P2;Temp;Humidity;BMP_temperature;BMP_pressure;BME280_temperature;BME280_humidity;BME280_pressure;Samples;Min_cycle;Max_cycle;Signal;HPM_P1;HPM_P2
2023/02/09 00:01:58;;;;;;;22.80;14.17;;;2.90;92.90;;;;;;5068746;28;20644;-69
2023/02/09 00:04:23;;;;;;;25.93;15.00;;;2.90;93.40;;;;;;5066963;28;20440;-68
2023/02/09 00:06:49;;;;;;;22.77;15.33;;;2.80;93.30;;;;;;5067226;28;20301;-69
2023/02/09 00:09:14;;;;;;;21.13;13.93;;;2.80;93.40;;;;;;5071020;28;20219;-69
2023/02/09 00:14:25;;;;;;;25.57;15.70;;;2.90;93.30;;;;;;5073392;28;20613;-70
2023/02/09 00:16:51;;;;;;;23.17;14.40;;;2.90;93.30;;;;;;5053234;28;20526;-70
2023/02/09 00:19:19;;;;;;;25.50;14.53;;;2.80;93.30;;;;;;5074445;28;20467;-70
2023/02/09 00:21:45;;;;;;;23.27;14.30;;;2.90;93.40;;;;;;5071373;28;20447;-70
2023/02/09 00:24:11;;;;;;;23.47;15.87;;;2.80;93.30;;;;;;5070414;28;21652;-70
2023/02/09 00:26:38;;;;;;;24.97;15.50;;;2.90;93.40;;;;;;5073654;28;20456;-70
2023/02/09 00:29:04;;;;;;;25.10;15.60;;;2.90;93.60;;;;;;5071315;28;20950;-70
2023/02/09 00:31:29;;;;;;;23.57;14.23;;;2.80;93.50;;;;;;5070030;28;20471;-70
2023/02/09 00:33:55;;;;;;;27.60;15.63;;;2.90;93.50;;;;;;5069791;28;20437;-70
2023/02/09 00:36:21;;;;;;;28.07;16.50;;;2.80;93.70;;;;;;5070581;28;20201;-70
2023/02/09 00:38:46;;;;;;;30.33;16.30;;;2.80;93.70;;;;;;5074475;28;20188;-70
2023/02/09 00:41:13;;;;;;;27.47;14.97;;;2.80;93.70;;;;;;5074468;28;20231;-70
2023/02/09 00:43:39;;;;;;;24.53;15.23;;;2.80;93.60;;;;;;5075147;28;20170;-70
2023/02/09 00:46:05;;;;;;;22.50;13.50;;;2.80;93.70;;;;;;5071911;28;20456;-69
2023/02/09 00:48:30;;;;;;;21.73;15.30;;;2.80;93.90;;;;;;5075524;28;20477;-70
2023/02/09 00:50:56;;;;;;;22.50;14.67;;;2.80;94.10;;;;;;5073917;28;20509;-70
2023/02/09 00:53:22;;;;;;;26.00;16.00;;;2.70;94.10;;;;;;5077233;28;20591;-69
2023/02/09 00:55:48;;;;;;;24.53;15.73;;;2.70;94.30;;;;;;5067484;28;20652;-70
2023/02/09 00:58:14;;;;;;;23.27;14.77;;;2.60;94.50;;;;;;5073840;28;20456;-70
2023/02/09 01:00:40;;;;;;;25.17;16.23;;;2.70;94.40;;;;;;5057126;28;20463;-70
2023/02/09 01:03:05;;;;;;;26.83;16.00;;;2.70;94.50;;;;;;5073666;28;20416;-70
2023/02/09 01:05:31;;;;;;;26.57;15.30;;;2.70;94.40;;;;;;5072658;28;20505;-70
2023/02/09 01:07:57;;;;;;;24.00;15.97;;;2.70;94.40;;;;;;5068161;28;20233;-70
2023/02/09 01:10:23;;;;;;;28.47;15.83;;;2.70;94.70;;;;;;5075847;28;20285;-70
2023/02/09 01:12:48;;;;;;;26.73;16.10;;;2.70;95.10;;;;;;5072271;28;20969;-70
2023/02/09 01:15:14;;;;;;;24.23;15.27;;;2.60;94.80;;;;;;5081099;28;20240;-68
2023/02/09 01:17:40;;;;;;;28.00;14.37;;;2.60;94.90;;;;;;5059296;28;20237;-68
2023/02/09 01:20:07;;;;;;;23.13;14.77;;;2.60;95.00;;;;;;5053169;28;20274;-68
2023/02/09 01:22:35;;;;;;;23.70;14.93;;;2.60;95.00;;;;;;5075218;28;20728;-69
2023/02/09 01:25:00;;;;;;;26.50;14.50;;;2.60;95.10;;;;;;5073318;28;20520;-69
2023/02/09 01:27:26;;;;;;;27.27;16.77;;;2.60;95.20;;;;;;5077138;28;20456;-69
2023/02/09 01:29:52;;;;;;;21.60;15.80;;;2.50;95.30;;;;;;5075552;28;20625;-68
2023/02/09 01:32:17;;;;;;;26.50;16.40;;;2.50;95.40;;;;;;5056456;28;20287;-69
2023/02/09 01:34:43;;;;;;;25.17;15.53;;;2.50;95.40;;;;;;5075593;28;20266;-69
2023/02/09 01:37:08;;;;;;;27.27;15.80;;;2.50;95.60;;;;;;5074659;28;20208;-69
2023/02/09 01:39:34;;;;;;;25.87;15.57;;;2.50;95.40;;;;;;5075826;28;20185;-68
2023/02/09 01:42:00;;;;;;;26.43;16.00;;;2.50;95.60;;;;;;5074235;28;20195;-67
2023/02/09 01:44:25;;;;;;;27.73;17.70;;;2.50;95.70;;;;;;5078850;28;20195;-67
2023/02/09 01:46:51;;;;;;;26.43;16.80;;;2.40;95.60;;;;;;5057995;28;20206;-67
2023/02/09 01:49:20;;;;;;;22.10;14.97;;;2.40;95.90;;;;;;5082009;28;20270;-67
2023/02/09 01:52:11;;;;;;;24.93;16.27;;;2.40;95.90;;;;;;5068624;28;20622;-67
2023/02/09 01:54:45;;;;;;;22.40;14.00;;;2.40;96.00;;;;;;5072943;28;20432;-67
2023/02/09 01:57:19;;;;;;;22.00;15.60;;;2.40;96.10;;;;;;5077558;28;20486;-68
2023/02/09 01:59:50;;;;;;;27.00;15.83;;;2.40;96.30;;;;;;5072402;28;20802;-68
2023/02/09 02:02:16;;;;;;;28.30;16.80;;;2.40;96.30;;;;;;5073948;28;20437;-68
2023/02/09 02:04:43;;;;;;;25.73;15.87;;;2.40;96.40;;;;;;5079900;28;20929;-68
2023/02/09 02:07:27;;;;;;;23.77;14.70;;;2.40;96.50;;;;;;5055591;28;20476;-68
2023/02/09 02:09:53;;;;;;;25.83;16.23;;;2.40;96.60;;;;;;5077919;28;20456;-68
2023/02/09 02:12:19;;;;;;;26.23;15.70;;;2.40;96.50;;;;;;5075067;28;20506;-68
2023/02/09 02:14:45;;;;;;;24.77;15.20;;;2.40;96.50;;;;;;5078851;28;20416;-68
2023/02/09 02:17:27;;;;;;;23.53;14.40;;;2.40;96.70;;;;;;5072841;28;21148;-68
2023/02/09 02:20:17;;;;;;;25.87;15.70;;;2.40;97.30;;;;;;5068966;28;20185;-68
2023/02/09 02:22:51;;;;;;;25.20;14.77;;;2.40;97.00;;;;;;5073627;28;20460;-68
2023/02/09 02:25:38;;;;;;;27.93;16.13;;;2.30;97.20;;;;;;5073988;28;20917;-68
2023/02/09 02:28:31;;;;;;;29.37;17.17;;;2.30;97.40;;;;;;5074108;28;20430;-67
2023/02/09 02:31:25;;;;;;;26.47;17.23;;;2.20;97.70;;;;;;5072433;28;20472;-68
2023/02/09 02:34:31;;;;;;;29.50;16.40;;;2.20;97.80;;;;;;5075072;28;20416;-67
2023/02/09 02:37:33;;;;;;;25.00;15.60;;;2.20;98.10;;;;;;5068401;28;20468;-68
2023/02/09 02:40:09;;;;;;;28.07;16.23;;;2.20;98.10;;;;;;5034357;28;20548;-68
2023/02/09 02:42:47;;;;;;;29.37;16.37;;;2.10;98.10;;;;;;5072699;28;21520;-68
2023/02/09 02:45:41;;;;;;;25.13;15.97;;;2.10;98.20;;;;;;5076068;28;20452;-68
2023/02/09 02:48:13;;;;;;;23.83;16.30;;;2.10;98.30;;;;;;5073775;28;20451;-68
2023/02/09 02:50:47;;;;;;;27.40;17.30;;;2.10;98.40;;;;;;5074491;28;20444;-68
2023/02/09 02:53:15;;;;;;;26.83;16.60;;;1.90;98.60;;;;;;5055151;28;20456;-68
2023/02/09 02:55:43;;;;;;;23.27;14.70;;;1.90;98.50;;;;;;5072736;28;20433;-68
2023/02/09 02:58:12;;;;;;;25.00;16.00;;;1.90;98.70;;;;;;5072106;28;20448;-68
2023/02/09 03:00:45;;;;;;;30.80;16.33;;;1.90;98.80;;;;;;5073334;28;20445;-68
2023/02/09 03:03:39;;;;;;;28.00;16.10;;;1.90;98.90;;;;;;5054892;28;20973;-68
2023/02/09 03:06:06;;;;;;;28.03;17.33;;;1.90;98.90;;;;;;5065415;28;20529;-68
2023/02/09 03:08:52;;;;;;;25.20;15.67;;;1.90;99.00;;;;;;5071549;28;20439;-68
2023/02/09 03:11:20;;;;;;;27.63;17.03;;;1.90;99.00;;;;;;5072212;28;20518;-68
2023/02/09 03:13:58;;;;;;;26.90;16.17;;;1.90;99.00;;;;;;5071242;28;20852;-68
2023/02/09 03:16:29;;;;;;;26.53;16.37;;;1.90;99.00;;;;;;5071521;28;20447;-68
2023/02/09 03:19:24;;;;;;;22.97;14.63;;;1.90;99.10;;;;;;5069767;28;20448;-68
2023/02/09 03:21:57;;;;;;;29.63;15.60;;;1.90;99.10;;;;;;5074705;28;20446;-68
2023/02/09 03:24:40;;;;;;;28.00;15.83;;;1.90;99.20;;;;;;5075671;28;20433;-69
2023/02/09 03:27:15;;;;;;;32.53;15.80;;;1.80;99.40;;;;;;5072532;28;20586;-68
2023/02/09 03:29:43;;;;;;;27.60;16.77;;;1.80;99.40;;;;;;5076460;28;20547;-68
2023/02/09 03:32:09;;;;;;;30.47;16.83;;;1.80;99.50;;;;;;5050661;28;20599;-68
2023/02/09 03:34:35;;;;;;;27.43;16.57;;;1.80;99.60;;;;;;5071445;28;20581;-69
2023/02/09 03:37:00;;;;;;;28.00;16.13;;;1.80;99.70;;;;;;5051578;28;20219;-68
2023/02/09 03:39:26;;;;;;;26.30;15.47;;;1.80;99.80;;;;;;5068255;28;20189;-68
2023/02/09 03:41:52;;;;;;;27.23;15.90;;;1.80;99.90;;;;;;5072827;28;20205;-69
2023/02/09 03:44:26;;;;;;;28.40;16.57;;;1.80;99.90;;;;;;5070880;28;20192;-68
2023/02/09 03:47:01;;;;;;;28.33;15.60;;;1.80;99.90;;;;;;5053613;28;20213;-68
2023/02/09 03:49:30;;;;;;;25.67;16.20;;;1.70;99.90;;;;;;5074453;28;20450;-68
2023/02/09 03:51:59;;;;;;;32.37;17.13;;;1.70;99.90;;;;;;5071965;28;20471;-68
2023/02/09 03:54:26;;;;;;;25.27;16.37;;;1.80;99.90;;;;;;5057860;28;20431;-69
2023/02/09 03:56:51;;;;;;;26.50;16.77;;;1.80;99.90;;;;;;5070120;28;20452;-68
2023/02/09 03:59:17;;;;;;;27.80;15.00;;;1.70;99.90;;;;;;5057177;28;20965;-68
2023/02/09 04:01:42;;;;;;;24.17;15.77;;;1.70;99.90;;;;;;5075699;28;20277;-68
2023/02/09 04:04:08;;;;;;;25.00;15.83;;;1.70;99.90;;;;;;5072770;28;20285;-68
2023/02/09 04:06:34;;;;;;;25.80;14.97;;;1.50;99.90;;;;;;5075026;28;20218;-68
2023/02/09 04:09:00;;;;;;;27.23;14.97;;;1.40;99.90;;;;;;5070607;28;20276;-68
2023/02/09 04:11:26;;;;;;;24.30;15.23;;;1.30;99.90;;;;;;5056203;28;20547;-68
2023/02/09 04:13:51;;;;;;;22.63;15.67;;;1.30;99.90;;;;;;5072689;28;20471;-68
2023/02/09 04:16:17;;;;;;;25.70;17.03;;;1.20;99.90;;;;;;5076228;28;21042;-68
2023/02/09 04:18:45;;;;;;;24.43;16.07;;;1.20;99.90;;;;;;5067318;28;20186;-68
2023/02/09 04:21:12;;;;;;;24.17;15.60;;;1.10;99.90;;;;;;5067494;28;20447;-69
2023/02/09 04:23:38;;;;;;;24.33;15.77;;;1.20;99.90;;;;;;5070373;28;20482;-68
2023/02/09 04:26:04;;;;;;;30.70;17.60;;;1.20;99.90;;;;;;5073608;28;20921;-68
2023/02/09 04:28:30;;;;;;;23.53;15.00;;;1.10;99.90;;;;;;5072651;28;20432;-68
2023/02/09 04:30:56;;;;;;;27.90;16.70;;;0.90;99.90;;;;;;5074531;28;20516;-68
2023/02/09 04:33:23;;;;;;;21.53;14.20;;;0.90;99.90;;;;;;5073370;28;20198;-68
2023/02/09 04:35:49;;;;;;;24.23;14.23;;;0.90;99.90;;;;;;5074907;28;20454;-68
2023/02/09 04:38:20;;;;;;;23.07;13.53;;;1.00;99.90;;;;;;5072556;28;20511;-68
2023/02/09 04:40:46;;;;;;;25.73;14.20;;;1.00;99.90;;;;;;5076980;28;20459;-68
2023/02/09 04:43:12;;;;;;;27.27;14.90;;;1.10;99.90;;;;;;5074144;28;20899;-68
2023/02/09 04:45:38;;;;;;;24.60;14.03;;;1.00;99.90;;;;;;5053948;28;20483;-69
2023/02/09 04:48:05;;;;;;;24.50;14.53;;;1.00;99.90;;;;;;5076215;28;20208;-68
2023/02/09 04:50:30;;;;;;;23.80;13.63;;;1.00;99.90;;;;;;5076261;28;20442;-68
2023/02/09 04:52:56;;;;;;;26.17;14.23;;;1.00;99.90;;;;;;5074432;28;20474;-68
2023/02/09 04:55:21;;;;;;;23.43;15.50;;;1.00;99.90;;;;;;5079464;28;20185;-69
2023/02/09 05:00:31;;;;;;;25.80;15.50;;;1.00;99.90;;;;;;5074547;28;20174;-69
2023/02/09 05:02:57;;;;;;;24.73;14.90;;;1.00;99.90;;;;;;5074908;28;20432;-69
2023/02/09 05:05:22;;;;;;;24.67;16.10;;;1.00;99.90;;;;;;5079714;28;20207;-69
2023/02/09 05:07:48;;;;;;;27.60;15.80;;;1.00;99.90;;;;;;5078644;28;20220;-69
2023/02/09 05:10:13;;;;;;;27.67;16.03;;;1.00;99.90;;;;;;5077199;28;21454;-69
2023/02/09 05:12:39;;;;;;;22.20;14.80;;;1.00;99.90;;;;;;5079796;28;20220;-68
2023/02/09 05:15:05;;;;;;;27.53;15.00;;;1.00;99.90;;;;;;5056375;28;20177;-68
2023/02/09 05:17:31;;;;;;;23.93;14.90;;;1.00;99.90;;;;;;5078419;28;20451;-68
2023/02/09 05:19:57;;;;;;;25.77;15.47;;;1.00;99.90;;;;;;5075456;28;20436;-70
2023/02/09 05:22:23;;;;;;;25.90;16.27;;;1.10;99.90;;;;;;5077179;28;20430;-70
2023/02/09 05:24:48;;;;;;;28.73;16.47;;;1.00;99.90;;;;;;5080058;28;21129;-69
2023/02/09 05:27:14;;;;;;;24.93;15.67;;;1.10;99.90;;;;;;5076223;28;20251;-69
2023/02/09 05:29:40;;;;;;;23.30;15.23;;;1.10;99.90;;;;;;5078959;28;20174;-70
2023/02/09 05:32:05;;;;;;;28.77;15.03;;;1.00;99.90;;;;;;5079500;28;20217;-70
2023/02/09 05:34:31;;;;;;;26.50;16.97;;;1.10;99.90;;;;;;5078278;28;20192;-70
2023/02/09 05:36:56;;;;;;;26.47;15.77;;;1.10;99.90;;;;;;5074444;28;20286;-71
2023/02/09 05:39:22;;;;;;;24.67;15.60;;;1.10;99.90;;;;;;5075472;28;20190;-71
2023/02/09 05:44:32;;;;;;;33.37;16.90;;;1.10;99.90;;;;;;5074972;28;20212;-70
2023/02/09 05:46:57;;;;;;;30.63;18.27;;;1.00;99.90;;;;;;5077049;28;20989;-69
2023/02/09 05:49:23;;;;;;;26.90;16.33;;;1.00;99.90;;;;;;5075263;28;21399;-70
2023/02/09 05:51:48;;;;;;;25.93;15.83;;;1.00;99.90;;;;;;5043431;28;20202;-70
2023/02/09 05:54:14;;;;;;;23.30;14.97;;;0.90;99.90;;;;;;5075017;28;20186;-69
2023/02/09 05:56:39;;;;;;;26.53;16.40;;;1.00;99.90;;;;;;5076743;28;20251;-68
2023/02/09 05:59:05;;;;;;;26.50;15.60;;;1.00;99.90;;;;;;5074874;28;20668;-68
2023/02/09 06:01:31;;;;;;;28.20;16.43;;;1.00;99.90;;;;;;5078594;28;20193;-68
2023/02/09 06:03:57;;;;;;;29.33;17.43;;;1.00;99.90;;;;;;5071145;28;20671;-68
2023/02/09 06:06:22;;;;;;;27.50;17.90;;;0.90;99.90;;;;;;5078022;28;20579;-69
2023/02/09 06:08:48;;;;;;;32.10;18.20;;;0.90;99.90;;;;;;5074821;28;20186;-68
2023/02/09 06:11:13;;;;;;;27.43;16.07;;;0.90;99.90;;;;;;5077961;28;20249;-69
2023/02/09 06:13:39;;;;;;;28.90;15.60;;;0.90;99.90;;;;;;5076301;28;20238;-68
2023/02/09 06:16:05;;;;;;;28.30;16.30;;;1.00;99.90;;;;;;5059912;28;20326;-68
2023/02/09 06:18:30;;;;;;;28.77;16.60;;;1.00;99.90;;;;;;5076550;28;20584;-68
2023/02/09 06:20:56;;;;;;;31.60;17.07;;;1.00;99.90;;;;;;5074864;28;20193;-68
2023/02/09 06:23:21;;;;;;;30.77;17.27;;;1.00;99.90;;;;;;5060508;28;20693;-68
2023/02/09 06:25:47;;;;;;;26.57;15.70;;;1.00;99.90;;;;;;5077523;28;20215;-68
2023/02/09 06:28:13;;;;;;;26.33;16.40;;;0.90;99.90;;;;;;5059356;28;20173;-68
2023/02/09 06:30:38;;;;;;;26.60;16.77;;;0.90;99.90;;;;;;5078461;28;20418;-68
2023/02/09 06:33:04;;;;;;;25.53;16.23;;;0.90;99.90;;;;;;5075677;28;20569;-69
2023/02/09 06:35:29;;;;;;;24.60;15.37;;;0.90;99.90;;;;;;5078578;28;20184;-69
2023/02/09 06:37:58;;;;;;;34.17;17.00;;;0.90;99.90;;;;;;5073099;28;20255;-69
2023/02/09 06:40:23;;;;;;;34.33;18.03;;;0.90;99.90;;;;;;5060167;28;20178;-68
2023/02/09 06:42:49;;;;;;;28.40;16.50;;;0.90;99.90;;;;;;5078325;28;20519;-68
2023/02/09 06:45:16;;;;;;;28.00;16.77;;;0.90;99.90;;;;;;5073829;28;20198;-69
2023/02/09 06:47:43;;;;;;;23.23;16.10;;;0.90;99.90;;;;;;5055484;28;20217;-69
2023/02/09 06:50:11;;;;;;;27.10;15.57;;;0.80;99.90;;;;;;5074795;28;21194;-69
2023/02/09 06:52:36;;;;;;;29.27;16.33;;;0.70;99.90;;;;;;5073097;28;20541;-69
2023/02/09 06:55:03;;;;;;;28.63;16.70;;;0.60;99.90;;;;;;5075600;28;21084;-69
2023/02/09 06:57:29;;;;;;;28.33;17.53;;;0.50;99.90;;;;;;5078529;28;20282;-69
2023/02/09 06:59:54;;;;;;;27.63;16.10;;;0.50;99.90;;;;;;5074657;28;20472;-68
2023/02/09 07:02:20;;;;;;;26.67;15.67;;;0.50;99.90;;;;;;5074926;28;21270;-68
2023/02/09 07:04:46;;;;;;;29.67;17.70;;;0.40;99.90;;;;;;5072115;28;20854;-69
2023/02/09 07:07:11;;;;;;;27.00;15.43;;;0.30;99.90;;;;;;5065693;28;20766;-69
2023/02/09 07:09:37;;;;;;;26.93;15.90;;;0.30;99.90;;;;;;5073113;28;20186;-68
2023/02/09 07:12:03;;;;;;;25.53;16.03;;;0.30;99.90;;;;;;5070049;28;20255;-68
2023/02/09 07:14:28;;;;;;;25.93;14.90;;;0.30;99.90;;;;;;5069419;28;20186;-69
2023/02/09 07:16:54;;;;;;;29.07;15.70;;;0.30;99.90;;;;;;5072652;28;20283;-68
2023/02/09 07:19:19;;;;;;;28.03;17.83;;;0.30;99.90;;;;;;5070653;28;20209;-68
2023/02/09 07:21:45;;;;;;;28.87;15.07;;;0.20;99.90;;;;;;5073214;28;20182;-68
2023/02/09 07:24:10;;;;;;;28.27;17.40;;;0.20;99.90;;;;;;5055603;28;20181;-67
2023/02/09 07:26:36;;;;;;;27.87;16.43;;;0.30;99.90;;;;;;5066184;28;20205;-68
2023/02/09 07:29:02;;;;;;;30.70;16.67;;;0.30;99.90;;;;;;5054417;28;20250;-67
2023/02/09 07:31:28;;;;;;;29.97;15.30;;;0.30;99.90;;;;;;5072801;28;20621;-67
2023/02/09 07:33:54;;;;;;;30.53;16.93;;;0.10;99.90;;;;;;5058332;28;20642;-68
2023/02/09 07:36:20;;;;;;;26.20;15.20;;;0.00;99.90;;;;;;5071389;28;20523;-67
2023/02/09 07:38:45;;;;;;;30.70;16.43;;;0.10;99.90;;;;;;5051005;28;20772;-67
2023/02/09 07:41:14;;;;;;;26.23;15.40;;;0.20;99.90;;;;;;5055946;28;20238;-68
2023/02/09 07:43:40;;;;;;;28.00;15.90;;;0.30;99.90;;;;;;5055029;28;20180;-68
2023/02/09 07:46:07;;;;;;;30.83;16.87;;;0.30;99.90;;;;;;5067150;28;21202;-68
2023/02/09 07:48:33;;;;;;;40.63;15.70;;;0.30;99.90;;;;;;5071397;28;20181;-69
2023/02/09 07:50:59;;;;;;;26.87;17.50;;;0.50;99.90;;;;;;5053643;28;20532;-68
2023/02/09 07:53:25;;;;;;;26.77;15.80;;;0.50;99.90;;;;;;5070653;28;20454;-68
2023/02/09 07:55:51;;;;;;;23.60;15.00;;;0.60;99.90;;;;;;5071047;28;20210;-67
2023/02/09 07:58:18;;;;;;;27.57;16.47;;;0.70;99.90;;;;;;5070874;28;20446;-69
2023/02/09 08:00:45;;;;;;;25.47;15.53;;;0.80;99.90;;;;;;5070593;28;20181;-68
2023/02/09 08:03:11;;;;;;;27.87;15.77;;;0.90;99.90;;;;;;5068434;28;20426;-68
2023/02/09 08:05:44;;;;;;;28.00;15.90;;;0.90;99.90;;;;;;5066838;28;20538;-69
2023/02/09 08:08:09;;;;;;;29.03;16.83;;;0.90;99.90;;;;;;5051243;28;20454;-70
2023/02/09 08:10:35;;;;;;;27.30;16.13;;;0.90;99.90;;;;;;5068114;28;20441;-70
2023/02/09 08:13:02;;;;;;;25.90;17.07;;;1.00;99.90;;;;;;5068432;28;20263;-70
2023/02/09 08:15:53;;;;;;;27.70;17.20;;;1.10;99.90;;;;;;5073858;28;20527;-69
2023/02/09 08:18:23;;;;;;;25.30;17.30;;;1.10;99.90;;;;;;5061460;28;20966;-67
2023/02/09 08:20:51;;;;;;;25.83;16.77;;;1.00;99.90;;;;;;5077383;28;20432;-67
2023/02/09 08:23:26;;;;;;;29.67;17.30;;;0.90;99.90;;;;;;5072878;28;20426;-66
2023/02/09 08:25:53;;;;;;;31.30;16.30;;;1.00;99.90;;;;;;5075402;28;20525;-67
2023/02/09 08:28:20;;;;;;;31.87;17.90;;;1.00;99.90;;;;;;5068937;28;20436;-68
2023/02/09 08:30:47;;;;;;;29.60;17.90;;;0.90;99.90;;;;;;5075311;28;20424;-66
2023/02/09 08:33:13;;;;;;;31.37;16.87;;;0.90;99.90;;;;;;5073069;28;20423;-67
2023/02/09 08:35:39;;;;;;;29.53;17.70;;;1.00;99.90;;;;;;5074674;28;20569;-67
2023/02/09 08:38:04;;;;;;;27.73;18.47;;;1.00;99.90;;;;;;5071868;28;20191;-67
2023/02/09 08:40:30;;;;;;;34.23;19.53;;;1.10;99.90;;;;;;5070580;28;20185;-67
2023/02/09 08:42:57;;;;;;;29.20;18.37;;;1.20;99.90;;;;;;5075052;28;20198;-67
2023/02/09 08:45:23;;;;;;;26.90;16.57;;;1.30;99.90;;;;;;5073678;28;20439;-67
2023/02/09 08:47:48;;;;;;;29.70;18.27;;;1.30;99.90;;;;;;5075340;28;20455;-68
2023/02/09 08:50:14;;;;;;;26.83;18.10;;;1.20;99.90;;;;;;5073487;28;20182;-68
2023/02/09 08:52:40;;;;;;;31.57;19.77;;;1.30;99.90;;;;;;5076313;28;20249;-69
2023/02/09 08:55:06;;;;;;;36.07;18.90;;;1.40;99.90;;;;;;5075269;28;20462;-70
2023/02/09 08:57:31;;;;;;;29.80;18.63;;;1.30;99.90;;;;;;5077515;28;20209;-70
2023/02/09 08:59:57;;;;;;;34.43;19.07;;;1.40;99.90;;;;;;5074381;28;20441;-66
2023/02/09 09:02:23;;;;;;;29.53;18.23;;;1.40;99.90;;;;;;5052934;28;20220;-67
2023/02/09 09:04:48;;;;;;;28.17;17.43;;;1.50;99.90;;;;;;5073528;28;20793;-68
2023/02/09 09:07:14;;;;;;;32.10;18.63;;;1.50;99.90;;;;;;5070742;28;20351;-69
2023/02/09 09:09:39;;;;;;;33.90;19.73;;;1.60;99.90;;;;;;5075719;28;20316;-68
2023/02/09 09:12:05;;;;;;;30.07;17.97;;;1.60;99.90;;;;;;5073557;28;20208;-68
2023/02/09 09:14:31;;;;;;;32.07;20.20;;;1.70;99.90;;;;;;5073931;28;20261;-69
2023/02/09 09:16:57;;;;;;;36.90;20.90;;;1.70;99.90;;;;;;5070895;28;20695;-68
2023/02/09 09:19:23;;;;;;;32.13;19.27;;;1.80;99.90;;;;;;5070957;28;20186;-68
2023/02/09 09:21:49;;;;;;;33.80;20.97;;;1.80;99.90;;;;;;5071695;28;20443;-68
2023/02/09 09:24:15;;;;;;;29.90;20.07;;;1.80;99.90;;;;;;5074715;28;20941;-66
2023/02/09 09:26:41;;;;;;;30.63;18.50;;;1.90;99.90;;;;;;5075266;28;20202;-70
2023/02/09 09:29:08;;;;;;;34.40;18.83;;;1.90;99.90;;;;;;5073109;28;21400;-70
2023/02/09 09:31:34;;;;;;;28.20;17.80;;;1.90;99.90;;;;;;5073237;28;20209;-69
2023/02/09 09:33:59;;;;;;;30.87;19.03;;;2.00;99.90;;;;;;5073376;28;20480;-67
2023/02/09 09:36:25;;;;;;;42.17;21.70;;;2.00;99.90;;;;;;5075420;28;20229;-68
2023/02/09 09:38:50;;;;;;;33.97;19.80;;;2.10;99.90;;;;;;5077035;28;20209;-67
2023/02/09 09:41:35;;;;;;;29.80;18.07;;;2.10;99.90;;;;;;5076420;28;20186;-68
2023/02/09 09:44:02;;;;;;;34.53;18.93;;;2.10;99.90;;;;;;5076041;28;20193;-69
2023/02/09 09:46:38;;;;;;;30.57;17.37;;;2.20;99.90;;;;;;5069069;28;20517;-68
2023/02/09 09:49:04;;;;;;;29.87;18.93;;;2.40;99.90;;;;;;5073908;28;20446;-68
2023/02/09 09:51:42;;;;;;;30.73;18.83;;;2.30;99.90;;;;;;5071895;28;20554;-69
2023/02/09 09:54:17;;;;;;;31.23;19.13;;;2.40;99.90;;;;;;5079195;28;20420;-69
2023/02/09 09:56:43;;;;;;;30.60;19.83;;;2.50;99.90;;;;;;5077839;28;20447;-70
2023/02/09 09:59:18;;;;;;;29.07;18.80;;;2.40;99.90;;;;;;5072316;28;20443;-71
2023/02/09 10:01:44;;;;;;;34.67;19.77;;;2.30;99.90;;;;;;5078876;28;20432;-69
2023/02/09 10:04:14;;;;;;;27.40;16.30;;;2.50;99.90;;;;;;5076734;28;20516;-68
2023/02/09 10:06:43;;;;;;;30.07;18.43;;;2.60;99.90;;;;;;5076313;28;20528;-68
2023/02/09 10:09:39;;;;;;;32.53;19.20;;;2.60;99.90;;;;;;5078163;28;20505;-68
2023/02/09 10:12:15;;;;;;;36.03;19.97;;;2.50;99.90;;;;;;5076964;28;20471;-69
2023/02/09 10:14:40;;;;;;;31.33;18.93;;;2.60;99.90;;;;;;5071494;28;20453;-68
2023/02/09 10:17:07;;;;;;;36.47;20.30;;;2.60;99.90;;;;;;5078203;28;20807;-69
2023/02/09 10:19:32;;;;;;;33.90;19.60;;;2.60;99.90;;;;;;5077735;28;20270;-68
2023/02/09 10:21:58;;;;;;;31.00;19.33;;;2.70;99.90;;;;;;5052509;28;20516;-70
2023/02/09 10:24:26;;;;;;;37.50;20.97;;;2.70;99.90;;;;;;5075681;28;20254;-67
2023/02/09 10:27:04;;;;;;;31.77;19.77;;;2.70;99.90;;;;;;5079106;28;20217;-68
2023/02/09 10:29:29;;;;;;;36.73;20.87;;;2.90;99.90;;;;;;5069228;28;20436;-67
2023/02/09 10:32:18;;;;;;;32.20;20.70;;;2.80;99.90;;;;;;5074206;28;20510;-68
2023/02/09 10:34:56;;;;;;;32.20;19.87;;;2.90;99.90;;;;;;5073535;28;20179;-68
2023/02/09 10:37:37;;;;;;;31.10;19.13;;;2.70;99.90;;;;;;5067814;28;20456;-69
2023/02/09 10:40:26;;;;;;;38.00;21.83;;;2.60;99.90;;;;;;5075466;28;20435;-68
2023/02/09 10:42:57;;;;;;;43.20;21.97;;;2.80;99.90;;;;;;5067358;28;20452;-68
2023/02/09 10:45:35;;;;;;;34.80;20.27;;;2.90;99.90;;;;;;5066032;28;20468;-69
2023/02/09 10:48:10;;;;;;;34.00;21.13;;;2.80;99.90;;;;;;5052668;28;21076;-68
2023/02/09 10:50:50;;;;;;;42.57;22.37;;;3.00;99.90;;;;;;5058041;28;20428;-69
2023/02/09 10:53:31;;;;;;;33.97;20.13;;;3.00;99.90;;;;;;5070573;28;20416;-68
2023/02/09 10:56:02;;;;;;;31.07;19.20;;;3.00;99.90;;;;;;5074722;28;21255;-69
2023/02/09 10:58:36;;;;;;;33.97;19.20;;;3.10;99.90;;;;;;5072494;28;20481;-69
2023/02/09 11:01:08;;;;;;;41.47;20.80;;;3.20;99.90;;;;;;5073850;28;20416;-68
2023/02/09 11:03:35;;;;;;;36.40;21.47;;;3.30;99.90;;;;;;5069081;28;21066;-67
2023/02/09 11:06:13;;;;;;;31.37;20.50;;;3.30;99.90;;;;;;5051825;28;21252;-67
2023/02/09 11:08:47;;;;;;;35.93;20.70;;;3.40;99.90;;;;;;5068250;28;20437;-68
2023/02/09 11:11:26;;;;;;;33.50;21.17;;;3.40;99.90;;;;;;5070738;28;20476;-69
2023/02/09 11:13:52;;;;;;;37.50;19.40;;;3.20;99.90;;;;;;5073500;28;20550;-70
2023/02/09 11:16:40;;;;;;;35.90;21.07;;;3.30;99.90;;;;;;5069295;28;20491;-70
2023/02/09 11:19:24;;;;;;;38.53;21.50;;;3.50;99.90;;;;;;5072676;28;20428;-69
2023/02/09 11:22:09;;;;;;;32.37;20.87;;;3.40;99.90;;;;;;5071644;28;20452;-68
2023/02/09 11:24:45;;;;;;;30.00;19.77;;;3.40;99.90;;;;;;5067454;28;20452;-70
2023/02/09 11:27:30;;;;;;;35.23;21.17;;;3.60;99.90;;;;;;5048322;28;20468;-69
2023/02/09 11:30:04;;;;;;;34.47;21.17;;;3.70;99.90;;;;;;5066590;28;20977;-68
2023/02/09 11:32:39;;;;;;;36.90;23.60;;;3.80;99.90;;;;;;5071859;28;20571;-69
2023/02/09 11:35:15;;;;;;;36.97;23.30;;;3.80;99.90;;;;;;5072577;28;20440;-68
2023/02/09 11:38:00;;;;;;;36.70;21.73;;;3.90;99.90;;;;;;5052243;28;20491;-66
2023/02/09 11:40:56;;;;;;;40.53;21.80;;;3.80;99.90;;;;;;5068219;28;20436;-66
2023/02/09 11:43:34;;;;;;;35.70;22.67;;;3.90;99.90;;;;;;5069781;28;20437;-68
2023/02/09 11:46:09;;;;;;;32.57;21.40;;;3.80;99.90;;;;;;5069910;28;20995;-68
2023/02/09 11:48:41;;;;;;;35.57;21.63;;;3.90;99.90;;;;;;5066489;28;20484;-69
2023/02/09 11:51:16;;;;;;;35.77;23.00;;;4.00;99.90;;;;;;5068782;28;20452;-69
2023/02/09 11:53:50;;;;;;;34.50;20.33;;;4.10;99.90;;;;;;5071414;28;20494;-69
2023/02/09 11:56:19;;;;;;;33.33;22.53;;;4.10;99.90;;;;;;5071053;28;20456;-67
2023/02/09 11:59:23;;;;;;;32.50;22.57;;;4.20;99.90;;;;;;5070913;28;21012;-67
2023/02/09 12:01:56;;;;;;;32.93;21.73;;;4.30;99.90;;;;;;5066750;28;20433;-67
2023/02/09 12:04:59;;;;;;;38.53;23.33;;;4.40;99.90;;;;;;5069679;28;21012;-67
2023/02/09 12:07:33;;;;;;;37.73;21.83;;;4.50;99.90;;;;;;5061659;28;20558;-67
2023/02/09 12:10:29;;;;;;;35.63;22.40;;;4.70;99.90;;;;;;5076401;28;20939;-68
2023/02/09 12:13:05;;;;;;;32.30;21.80;;;5.00;99.90;;;;;;5069823;28;20481;-67
2023/02/09 12:15:45;;;;;;;34.17;22.37;;;5.70;99.90;;;;;;5071848;28;20493;-67
2023/02/09 12:18:15;;;;;;;35.23;21.77;;;6.60;99.90;;;;;;5071324;28;20439;-67
2023/02/09 12:20:52;;;;;;;38.20;23.63;;;7.10;99.90;;;;;;5071573;28;20424;-67
2023/02/09 12:23:32;;;;;;;35.37;23.30;;;7.40;99.90;;;;;;5071120;28;20447;-67
2023/02/09 12:26:00;;;;;;;38.83;22.40;;;7.60;99.90;;;;;;5069908;28;20455;-68
2023/02/09 12:28:31;;;;;;;29.93;21.43;;;7.90;99.90;;;;;;5070880;28;20438;-68
2023/02/09 12:30:57;;;;;;;28.93;20.67;;;8.00;99.90;;;;;;5071160;28;20442;-67
2023/02/09 12:33:22;;;;;;;32.63;21.10;;;8.20;99.40;;;;;;5075490;28;20486;-67
2023/02/09 12:36:08;;;;;;;35.47;22.77;;;8.30;98.90;;;;;;5074819;28;20222;-67
2023/02/09 12:38:39;;;;;;;31.63;21.37;;;8.60;99.00;;;;;;5067495;28;20713;-67
2023/02/09 12:41:06;;;;;;;34.97;22.33;;;8.70;97.10;;;;;;5071746;28;20441;-67
2023/02/09 12:43:33;;;;;;;34.67;22.73;;;8.70;97.00;;;;;;5072590;28;20424;-67
2023/02/09 12:46:43;;;;;;;34.53;22.30;;;8.60;96.10;;;;;;5068345;28;20853;-67
2023/02/09 12:49:14;;;;;;;31.30;22.63;;;8.30;96.30;;;;;;5002683;28;20463;-68
2023/02/09 12:51:49;;;;;;;37.20;23.63;;;8.40;96.10;;;;;;5005801;28;20482;-67
2023/02/09 12:54:44;;;;;;;33.50;22.40;;;8.10;95.80;;;;;;5044091;28;20442;-67
2023/02/09 12:57:16;;;;;;;36.37;23.97;;;8.10;96.40;;;;;;5069046;28;20830;-68
2023/02/09 12:59:59;;;;;;;33.37;22.93;;;8.10;96.40;;;;;;5070693;28;20733;-67